sensor_id;sensor_type;location;lat;lon;timestamp;temperature;humidity
55648;DHT22;45266;48.756;9.246;2023-06-10T00:00:02;14.90;99.90
55648;DHT22;45266;48.756;9.246;2023-06-10T00:01:07;14.90;99.90
55648;DHT22;45266;48.756;9.246;2023-06-10T00:02:08;14.90;99.90
55648;DHT22;45266;48.756;9.246;2023-06-10T00:03:10;14.90;99.90
55648;DHT22;45266;48.756;9.246;2023-06-10T00:04:15;14.90;99.90
55648;DHT22;45266;48.756;9.246;2023-06-10T00:05:18;14.90;99.90
55648;DHT22;45266;48.756;9.246;2023-06-10T00:06:23;14.90;99.90
55648;DHT22;45266;48.756;9.246;2023-06-10T00:07:25;14.80;99.90
55648;DHT22;45266;48.756;9.246;2023-06-10T00:08:27;14.80;99.90
55648;DHT22;45266;48.756;9.246;2023-06-10T00:09:32;14.80;99.90
55648;DHT22;45266;48.756;9.246;2023-06-10T00:10:35;14.80;99.90
55648;DHT22;45266;48.756;9.246;2023-06-10T00:11:37;14.80;99.90
55648;DHT22;45266;48.756;9.246;2023-06-10T00:12:39;14.80;99.90
55648;DHT22;45266;48.756;9.246;2023-06-10T00:13:41;14.80;99.90
55648;DHT22;45266;48.756;9.246;2023-06-10T00:14:43;14.80;99.90
55648;DHT22;45266;48.756;9.246;2023-06-10T00:15:45;14.80;99.90
55648;DHT22;45266;48.756;9.246;2023-06-10T00:16:47;14.80;99.90
55648;DHT22;45266;48.756;9.246;2023-06-10T00:17:49;14.80;99.90
55648;DHT22;45266;48.756;9.246;2023-06-10T00:18:51;14.80;99.90
55648;DHT22;45266;48.756;9.246;2023-06-10T00:19:53;14.70;99.90
55648;DHT22;45266;48.756;9.246;2023-06-10T00:20:54;14.70;99.90
55648;DHT22;45266;48.756;9.246;2023-06-10T00:21:57;14.70;99.90
55648;DHT22;45266;48.756;9.246;2023-06-10T00:22:59;14.70;99.90
55648;DHT22;45266;48.756;9.246;2023-06-10T00:24:09;14.70;99.90
55648;DHT22;45266;48.756;9.246;2023-06-10T00:25:14;14.70;99.90
55648;DHT22;45266;48.756;9.246;2023-06-10T00:26:16;14.70;99.90
55648;DHT22;45266;48.756;9.246;2023-06-10T00:27:18;14.70;99.90
55648;DHT22;45266;48.756;9.246;2023-06-10T00:28:20;14.70;99.90
55648;DHT22;45266;48.756;9.246;2023-06-10T00:29:21;14.70;99.90
55648;DHT22;45266;48.756;9.246;2023-06-10T00:30:23;14.60;99.90
55648;DHT22;45266;48.756;9.246;2023-06-10T00:31:25;14.60;99.90
55648;DHT22;45266;48.756;9.246;2023-06-10T00:32:28;14.60;99.90
55648;DHT22;45266;48.756;9.246;2023-06-10T00:33:30;14.60;99.90
55648;DHT22;45266;48.756;9.246;2023-06-10T00:34:32;14.60;99.90
55648;DHT22;45266;48.756;9.246;2023-06-10T00:35:34;14.60;99.90
55648;DHT22;45266;48.756;9.246;2023-06-10T00:36:36;14.60;99.90
55648;DHT22;45266;48.756;9.246;2023-06-10T00:37:38;14.50;99.90
55648;DHT22;45266;48.756;9.246;2023-06-10T00:38:40;14.50;99.90
55648;DHT22;45266;48.756;9.246;2023-06-10T00:39:45;14.50;99.90
55648;DHT22;45266;48.756;9.246;2023-06-10T00:40:46;14.50;99.90
55648;DHT22;45266;48.756;9.246;2023-06-10T00:41:48;14.50;99.90
55648;DHT22;45266;48.756;9.246;2023-06-10T00:42:51;14.50;99.90
55648;DHT22;45266;48.756;9.246;2023-06-10T00:43:52;14.50;99.90
55648;DHT22;45266;48.756;9.246;2023-06-10T00:44:55;14.50;99.90
55648;DHT22;45266;48.756;9.246;2023-06-10T00:45:57;14.50;99.90
55648;DHT22;45266;48.756;9.246;2023-06-10T00:46:58;14.40;99.90
55648;DHT22;45266;48.756;9.246;2023-06-10T00:48:01;14.40;99.90
55648;DHT22;45266;48.756;9.246;2023-06-10T00:49:03;14.40;99.90
55648;DHT22;45266;48.756;9.246;2023-06-10T00:50:05;14.40;99.90
55648;DHT22;45266;48.756;9.246;2023-06-10T00:51:08;14.40;99.90
55648;DHT22;45266;48.756;9.246;2023-06-10T00:52:11;14.40;99.90
55648;DHT22;45266;48.756;9.246;2023-06-10T00:53:13;14.40;99.90
55648;DHT22;45266;48.756;9.246;2023-06-10T00:54:15;14.40;99.90
55648;DHT22;45266;48.756;9.246;2023-06-10T00:55:17;14.40;99.90
55648;DHT22;45266;48.756;9.246;2023-06-10T00:56:20;14.40;99.90
55648;DHT22;45266;48.756;9.246;2023-06-10T00:57:22;14.40;99.90
55648;DHT22;45266;48.756;9.246;2023-06-10T00:58:24;14.30;99.90
55648;DHT22;45266;48.756;9.246;2023-06-10T00:59:28;14.40;99.90
55648;DHT22;45266;48.756;9.246;2023-06-10T01:00:31;14.40;99.90
55648;DHT22;45266;48.756;9.246;2023-06-10T01:01:33;14.30;99.90
55648;DHT22;45266;48.756;9.246;2023-06-10T01:02:36;14.30;99.90
55648;DHT22;45266;48.756;9.246;2023-06-10T01:03:39;14.30;99.90
55648;DHT22;45266;48.756;9.246;2023-06-10T01:04:41;14.30;99.90
55648;DHT22;45266;48.756;9.246;2023-06-10T01:05:43;14.30;99.90
55648;DHT22;45266;48.756;9.246;2023-06-10T01:11:05;14.30;99.90
55648;DHT22;45266;48.756;9.246;2023-06-10T01:12:39;14.30;99.90
55648;DHT22;45266;48.756;9.246;2023-06-10T01:13:44;14.30;99.90
55648;DHT22;45266;48.756;9.246;2023-06-10T01:14:47;14.20;99.90
55648;DHT22;45266;48.756;9.246;2023-06-10T01:15:51;14.20;99.90
55648;DHT22;45266;48.756;9.246;2023-06-10T01:16:53;14.20;99.90
55648;DHT22;45266;48.756;9.246;2023-06-10T01:18:05;14.20;99.90
55648;DHT22;45266;48.756;9.246;2023-06-10T01:19:11;14.20;99.90
55648;DHT22;45266;48.756;9.246;2023-06-10T01:20:14;14.20;99.90
55648;DHT22;45266;48.756;9.246;2023-06-10T01:21:22;14.20;99.90
55648;DHT22;45266;48.756;9.246;2023-06-10T01:22:28;14.20;99.90
55648;DHT22;45266;48.756;9.246;2023-06-10T01:23:30;14.20;99.90
55648;DHT22;45266;48.756;9.246;2023-06-10T01:24:32;14.20;99.90
55648;DHT22;45266;48.756;9.246;2023-06-10T01:25:47;14.20;99.90
55648;DHT22;45266;48.756;9.246;2023-06-10T01:26:50;14.20;99.90
55648;DHT22;45266;48.756;9.246;2023-06-10T01:28:02;14.20;99.90
55648;DHT22;45266;48.756;9.246;2023-06-10T01:29:14;14.20;99.90
55648;DHT22;45266;48.756;9.246;2023-06-10T01:30:19;14.20;99.90
55648;DHT22;45266;48.756;9.246;2023-06-10T01:33:00;14.20;99.90
55648;DHT22;45266;48.756;9.246;2023-06-10T01:34:07;14.20;99.90
55648;DHT22;45266;48.756;9.246;2023-06-10T01:35:10;14.20;99.90
55648;DHT22;45266;48.756;9.246;2023-06-10T01:36:15;14.20;99.90
55648;DHT22;45266;48.756;9.246;2023-06-10T01:37:19;14.20;99.90
55648;DHT22;45266;48.756;9.246;2023-06-10T01:38:25;14.10;99.90
55648;DHT22;45266;48.756;9.246;2023-06-10T01:39:28;14.10;99.90
55648;DHT22;45266;48.756;9.246;2023-06-10T01:40:31;14.10;99.90
55648;DHT22;45266;48.756;9.246;2023-06-10T01:41:34;14.10;99.90
55648;DHT22;45266;48.756;9.246;2023-06-10T01:42:37;14.10;99.90
55648;DHT22;45266;48.756;9.246;2023-06-10T01:43:39;14.10;99.90
55648;DHT22;45266;48.756;9.246;2023-06-10T01:44:41;14.00;99.90
55648;DHT22;45266;48.756;9.246;2023-06-10T01:45:43;14.10;99.90
55648;DHT22;45266;48.756;9.246;2023-06-10T01:46:45;14.00;99.90
55648;DHT22;45266;48.756;9.246;2023-06-10T01:47:48;14.00;99.90
55648;DHT22;45266;48.756;9.246;2023-06-10T01:48:50;13.90;99.90
55648;DHT22;45266;48.756;9.246;2023-06-10T01:49:51;14.00;99.90
55648;DHT22;45266;48.756;9.246;2023-06-10T01:50:53;14.00;99.90
55648;DHT22;45266;48.756;9.246;2023-06-10T01:51:57;14.00;99.90
55648;DHT22;45266;48.756;9.246;2023-06-10T01:52:59;14.00;99.90
55648;DHT22;45266;48.756;9.246;2023-06-10T01:54:02;14.00;99.90
55648;DHT22;45266;48.756;9.246;2023-06-10T01:55:04;13.90;99.90
55648;DHT22;45266;48.756;9.246;2023-06-10T01:56:06;13.90;99.90
55648;DHT22;45266;48.756;9.246;2023-06-10T01:57:08;13.90;99.90
55648;DHT22;45266;48.756;9.246;2023-06-10T01:58:10;13.90;99.90
55648;DHT22;45266;48.756;9.246;2023-06-10T01:59:12;13.90;99.90
55648;DHT22;45266;48.756;9.246;2023-06-10T02:00:14;13.90;99.90
55648;DHT22;45266;48.756;9.246;2023-06-10T02:01:16;13.90;99.90
55648;DHT22;45266;48.756;9.246;2023-06-10T02:02:18;13.90;99.90
55648;DHT22;45266;48.756;9.246;2023-06-10T02:03:20;13.80;99.90
55648;DHT22;45266;48.756;9.246;2023-06-10T02:04:22;13.80;99.90
55648;DHT22;45266;48.756;9.246;2023-06-10T02:05:24;13.80;99.90
55648;DHT22;45266;48.756;9.246;2023-06-10T02:06:26;13.80;99.90
55648;DHT22;45266;48.756;9.246;2023-06-10T02:07:28;13.80;99.90
55648;DHT22;45266;48.756;9.246;2023-06-10T02:08:30;13.80;99.90
55648;DHT22;45266;48.756;9.246;2023-06-10T02:09:32;13.70;99.90
55648;DHT22;45266;48.756;9.246;2023-06-10T02:10:36;13.70;99.90
55648;DHT22;45266;48.756;9.246;2023-06-10T02:11:38;13.70;99.90
55648;DHT22;45266;48.756;9.246;2023-06-10T02:12:40;13.70;99.90
55648;DHT22;45266;48.756;9.246;2023-06-10T02:13:42;13.70;99.90
55648;DHT22;45266;48.756;9.246;2023-06-10T02:14:44;13.70;99.90
55648;DHT22;45266;48.756;9.246;2023-06-10T02:15:46;13.70;99.90
55648;DHT22;45266;48.756;9.246;2023-06-10T02:16:47;13.60;99.90
55648;DHT22;45266;48.756;9.246;2023-06-10T02:17:49;13.60;99.90
55648;DHT22;45266;48.756;9.246;2023-06-10T02:18:52;13.60;99.90
55648;DHT22;45266;48.756;9.246;2023-06-10T02:19:54;13.60;99.90
55648;DHT22;45266;48.756;9.246;2023-06-10T02:20:56;13.60;99.90
55648;DHT22;45266;48.756;9.246;2023-06-10T02:21:58;13.60;99.90
55648;DHT22;45266;48.756;9.246;2023-06-10T02:22:59;13.60;99.90
55648;DHT22;45266;48.756;9.246;2023-06-10T02:24:01;13.60;99.90
55648;DHT22;45266;48.756;9.246;2023-06-10T02:25:04;13.60;99.90
55648;DHT22;45266;48.756;9.246;2023-06-10T02:26:07;13.50;99.90
55648;DHT22;45266;48.756;9.246;2023-06-10T02:27:09;13.50;99.90
55648;DHT22;45266;48.756;9.246;2023-06-10T02:28:10;13.50;99.90
55648;DHT22;45266;48.756;9.246;2023-06-10T02:29:12;13.50;99.90
55648;DHT22;45266;48.756;9.246;2023-06-10T02:30:14;13.50;99.90
55648;DHT22;45266;48.756;9.246;2023-06-10T02:31:17;13.50;99.90
55648;DHT22;45266;48.756;9.246;2023-06-10T02:32:20;13.50;99.90
55648;DHT22;45266;48.756;9.246;2023-06-10T02:33:22;13.50;99.90
55648;DHT22;45266;48.756;9.246;2023-06-10T02:34:24;13.50;99.90
55648;DHT22;45266;48.756;9.246;2023-06-10T02:35:26;13.50;99.90
55648;DHT22;45266;48.756;9.246;2023-06-10T02:36:28;13.50;99.90
55648;DHT22;45266;48.756;9.246;2023-06-10T02:37:30;13.50;99.90
55648;DHT22;45266;48.756;9.246;2023-06-10T02:38:32;13.50;99.90
55648;DHT22;45266;48.756;9.246;2023-06-10T02:39:34;13.40;99.90
55648;DHT22;45266;48.756;9.246;2023-06-10T02:40:36;13.40;99.90
55648;DHT22;45266;48.756;9.246;2023-06-10T02:41:38;13.40;99.90
55648;DHT22;45266;48.756;9.246;2023-06-10T02:42:40;13.40;99.90
55648;DHT22;45266;48.756;9.246;2023-06-10T02:43:41;13.40;99.90
55648;DHT22;45266;48.756;9.246;2023-06-10T02:44:43;13.40;99.90
55648;DHT22;45266;48.756;9.246;2023-06-10T02:45:45;13.40;99.90
55648;DHT22;45266;48.756;9.246;2023-06-10T02:46:47;13.40;99.90
55648;DHT22;45266;48.756;9.246;2023-06-10T02:47:49;13.40;99.90
55648;DHT22;45266;48.756;9.246;2023-06-10T02:48:51;13.20;99.90
55648;DHT22;45266;48.756;9.246;2023-06-10T02:49:53;13.30;99.90
55648;DHT22;45266;48.756;9.246;2023-06-10T02:50:55;13.30;99.90
55648;DHT22;45266;48.756;9.246;2023-06-10T02:51:57;13.30;99.90
55648;DHT22;45266;48.756;9.246;2023-06-10T02:53:01;13.40;99.90
55648;DHT22;45266;48.756;9.246;2023-06-10T02:54:03;13.30;99.90
55648;DHT22;45266;48.756;9.246;2023-06-10T02:55:05;13.30;99.90
55648;DHT22;45266;48.756;9.246;2023-06-10T02:56:08;13.30;99.90
55648;DHT22;45266;48.756;9.246;2023-06-10T02:57:10;13.20;99.90
55648;DHT22;45266;48.756;9.246;2023-06-10T02:58:12;13.30;99.90
55648;DHT22;45266;48.756;9.246;2023-06-10T02:59:14;13.30;99.90
55648;DHT22;45266;48.756;9.246;2023-06-10T03:00:16;13.30;99.90
55648;DHT22;45266;48.756;9.246;2023-06-10T03:01:21;13.30;99.90
55648;DHT22;45266;48.756;9.246;2023-06-10T03:02:24;13.30;99.90
55648;DHT22;45266;48.756;9.246;2023-06-10T03:03:30;13.20;99.90
55648;DHT22;45266;48.756;9.246;2023-06-10T03:04:32;13.20;99.90
55648;DHT22;45266;48.756;9.246;2023-06-10T03:05:34;13.20;99.90
55648;DHT22;45266;48.756;9.246;2023-06-10T03:06:36;13.20;99.90
55648;DHT22;45266;48.756;9.246;2023-06-10T03:07:40;13.20;99.90
55648;DHT22;45266;48.756;9.246;2023-06-10T03:08:42;13.20;99.90
55648;DHT22;45266;48.756;9.246;2023-06-10T03:09:44;13.10;99.90
55648;DHT22;45266;48.756;9.246;2023-06-10T03:10:46;13.20;99.90
55648;DHT22;45266;48.756;9.246;2023-06-10T03:11:48;13.10;99.90
55648;DHT22;45266;48.756;9.246;2023-06-10T03:12:50;13.10;99.90
55648;DHT22;45266;48.756;9.246;2023-06-10T03:13:52;13.10;99.90
55648;DHT22;45266;48.756;9.246;2023-06-10T03:14:55;13.10;99.90
55648;DHT22;45266;48.756;9.246;2023-06-10T03:15:57;13.10;99.90
55648;DHT22;45266;48.756;9.246;2023-06-10T03:16:58;13.10;99.90
55648;DHT22;45266;48.756;9.246;2023-06-10T03:18:01;13.10;99.90
55648;DHT22;45266;48.756;9.246;2023-06-10T03:19:04;13.10;99.90
55648;DHT22;45266;48.756;9.246;2023-06-10T03:20:06;13.10;99.90
55648;DHT22;45266;48.756;9.246;2023-06-10T03:21:11;13.10;99.90
55648;DHT22;45266;48.756;9.246;2023-06-10T03:22:14;13.10;99.90
55648;DHT22;45266;48.756;9.246;2023-06-10T03:23:16;13.10;99.90
55648;DHT22;45266;48.756;9.246;2023-06-10T03:24:18;13.10;99.90
55648;DHT22;45266;48.756;9.246;2023-06-10T03:25:20;13.10;99.90
55648;DHT22;45266;48.756;9.246;2023-06-10T03:26:22;13.10;99.90
55648;DHT22;45266;48.756;9.246;2023-06-10T03:27:24;13.00;99.90
55648;DHT22;45266;48.756;9.246;2023-06-10T03:28:29;13.00;99.90
55648;DHT22;45266;48.756;9.246;2023-06-10T03:29:31;13.00;99.90
55648;DHT22;45266;48.756;9.246;2023-06-10T03:30:32;13.00;99.90
55648;DHT22;45266;48.756;9.246;2023-06-10T03:31:34;13.00;99.90
55648;DHT22;45266;48.756;9.246;2023-06-10T03:32:38;13.10;99.90
55648;DHT22;45266;48.756;9.246;2023-06-10T03:33:40;13.00;99.90
55648;DHT22;45266;48.756;9.246;2023-06-10T03:34:43;13.10;99.90
55648;DHT22;45266;48.756;9.246;2023-06-10T03:35:49;13.10;99.90
55648;DHT22;45266;48.756;9.246;2023-06-10T03:36:51;13.10;99.90
55648;DHT22;45266;48.756;9.246;2023-06-10T03:37:53;13.10;99.90
55648;DHT22;45266;48.756;9.246;2023-06-10T03:38:55;13.10;99.90
55648;DHT22;45266;48.756;9.246;2023-06-10T03:39:58;13.10;99.90
55648;DHT22;45266;48.756;9.246;2023-06-10T03:41:00;13.10;99.90
55648;DHT22;45266;48.756;9.246;2023-06-10T03:42:02;13.10;99.90
55648;DHT22;45266;48.756;9.246;2023-06-10T03:43:04;13.10;99.90
55648;DHT22;45266;48.756;9.246;2023-06-10T03:44:06;13.10;99.90
55648;DHT22;45266;48.756;9.246;2023-06-10T03:45:09;13.10;99.90
55648;DHT22;45266;48.756;9.246;2023-06-10T03:46:11;13.10;99.90
55648;DHT22;45266;48.756;9.246;2023-06-10T03:47:13;13.10;99.90
55648;DHT22;45266;48.756;9.246;2023-06-10T03:48:15;13.10;99.90
55648;DHT22;45266;48.756;9.246;2023-06-10T03:49:18;13.10;99.90
55648;DHT22;45266;48.756;9.246;2023-06-10T03:50:20;13.10;99.90
55648;DHT22;45266;48.756;9.246;2023-06-10T03:51:22;13.00;99.90
55648;DHT22;45266;48.756;9.246;2023-06-10T03:52:24;13.00;99.90
55648;DHT22;45266;48.756;9.246;2023-06-10T03:53:26;13.10;99.90
55648;DHT22;45266;48.756;9.246;2023-06-10T03:54:28;13.10;99.90
55648;DHT22;45266;48.756;9.246;2023-06-10T03:55:29;13.10;99.90
55648;DHT22;45266;48.756;9.246;2023-06-10T03:56:33;13.10;99.90
55648;DHT22;45266;48.756;9.246;2023-06-10T03:57:34;13.20;99.90
55648;DHT22;45266;48.756;9.246;2023-06-10T03:58:36;13.10;99.90
55648;DHT22;45266;48.756;9.246;2023-06-10T03:59:38;13.10;99.90
55648;DHT22;45266;48.756;9.246;2023-06-10T04:00:40;13.10;99.90
55648;DHT22;45266;48.756;9.246;2023-06-10T04:01:44;13.10;99.90
55648;DHT22;45266;48.756;9.246;2023-06-10T04:02:47;13.10;99.90
55648;DHT22;45266;48.756;9.246;2023-06-10T04:03:50;13.10;99.90
55648;DHT22;45266;48.756;9.246;2023-06-10T04:04:55;13.20;99.90
55648;DHT22;45266;48.756;9.246;2023-06-10T04:05:57;13.20;99.90
55648;DHT22;45266;48.756;9.246;2023-06-10T04:07:00;13.20;99.90
55648;DHT22;45266;48.756;9.246;2023-06-10T04:08:02;13.30;99.90
55648;DHT22;45266;48.756;9.246;2023-06-10T04:09:04;13.30;99.90
55648;DHT22;45266;48.756;9.246;2023-06-10T04:10:07;13.20;99.90
55648;DHT22;45266;48.756;9.246;2023-06-10T04:11:09;13.30;99.90
55648;DHT22;45266;48.756;9.246;2023-06-10T04:12:11;13.30;99.90
55648;DHT22;45266;48.756;9.246;2023-06-10T04:13:13;13.30;99.90
55648;DHT22;45266;48.756;9.246;2023-06-10T04:14:16;13.30;99.90
55648;DHT22;45266;48.756;9.246;2023-06-10T04:15:18;13.30;99.90
55648;DHT22;45266;48.756;9.246;2023-06-10T04:16:20;13.30;99.90
55648;DHT22;45266;48.756;9.246;2023-06-10T04:17:22;13.30;99.90
55648;DHT22;45266;48.756;9.246;2023-06-10T04:18:24;13.40;99.90
55648;DHT22;45266;48.756;9.246;2023-06-10T04:19:26;13.30;99.90
55648;DHT22;45266;48.756;9.246;2023-06-10T04:20:30;13.40;99.90
55648;DHT22;45266;48.756;9.246;2023-06-10T04:21:31;13.40;99.90
55648;DHT22;45266;48.756;9.246;2023-06-10T04:22:34;13.40;99.90
55648;DHT22;45266;48.756;9.246;2023-06-10T04:23:36;13.40;99.90
55648;DHT22;45266;48.756;9.246;2023-06-10T04:24:39;13.50;99.90
55648;DHT22;45266;48.756;9.246;2023-06-10T04:25:41;13.40;99.90
55648;DHT22;45266;48.756;9.246;2023-06-10T04:26:43;13.50;99.90
55648;DHT22;45266;48.756;9.246;2023-06-10T04:27:45;13.50;99.90
55648;DHT22;45266;48.756;9.246;2023-06-10T04:28:46;13.50;99.90
55648;DHT22;45266;48.756;9.246;2023-06-10T04:29:48;13.50;99.90
55648;DHT22;45266;48.756;9.246;2023-06-10T04:30:50;13.50;99.90
55648;DHT22;45266;48.756;9.246;2023-06-10T04:31:52;13.60;99.90
55648;DHT22;45266;48.756;9.246;2023-06-10T04:32:54;13.60;99.90
55648;DHT22;45266;48.756;9.246;2023-06-10T04:33:56;13.60;99.90
55648;DHT22;45266;48.756;9.246;2023-06-10T04:34:59;13.60;99.90
55648;DHT22;45266;48.756;9.246;2023-06-10T04:36:02;13.70;99.90
55648;DHT22;45266;48.756;9.246;2023-06-10T04:37:04;13.70;99.90
55648;DHT22;45266;48.756;9.246;2023-06-10T04:38:06;13.70;99.90
55648;DHT22;45266;48.756;9.246;2023-06-10T04:39:08;13.80;99.90
55648;DHT22;45266;48.756;9.246;2023-06-10T04:40:10;13.80;99.90
55648;DHT22;45266;48.756;9.246;2023-06-10T04:41:12;13.80;99.90
55648;DHT22;45266;48.756;9.246;2023-06-10T04:42:14;13.80;99.90
55648;DHT22;45266;48.756;9.246;2023-06-10T04:43:16;13.90;99.90
55648;DHT22;45266;48.756;9.246;2023-06-10T04:44:18;13.90;99.90
55648;DHT22;45266;48.756;9.246;2023-06-10T04:45:20;14.00;99.90
55648;DHT22;45266;48.756;9.246;2023-06-10T04:46:22;14.00;99.90
55648;DHT22;45266;48.756;9.246;2023-06-10T04:47:25;14.00;99.90
55648;DHT22;45266;48.756;9.246;2023-06-10T04:48:28;14.10;99.90
55648;DHT22;45266;48.756;9.246;2023-06-10T04:49:30;14.10;99.90
55648;DHT22;45266;48.756;9.246;2023-06-10T04:50:31;14.10;99.90
55648;DHT22;45266;48.756;9.246;2023-06-10T04:51:34;14.20;99.90
55648;DHT22;45266;48.756;9.246;2023-06-10T04:52:36;14.20;99.90
55648;DHT22;45266;48.756;9.246;2023-06-10T04:53:38;14.30;99.90
55648;DHT22;45266;48.756;9.246;2023-06-10T04:54:40;14.30;99.90
55648;DHT22;45266;48.756;9.246;2023-06-10T04:55:42;14.30;99.90
55648;DHT22;45266;48.756;9.246;2023-06-10T04:56:45;14.40;99.90
55648;DHT22;45266;48.756;9.246;2023-06-10T04:57:48;14.40;99.90
55648;DHT22;45266;48.756;9.246;2023-06-10T04:58:53;14.50;99.90
55648;DHT22;45266;48.756;9.246;2023-06-10T04:59:54;14.50;99.90
55648;DHT22;45266;48.756;9.246;2023-06-10T05:00:56;14.60;99.90
55648;DHT22;45266;48.756;9.246;2023-06-10T05:01:58;14.60;99.90
55648;DHT22;45266;48.756;9.246;2023-06-10T05:03:00;14.70;99.90
55648;DHT22;45266;48.756;9.246;2023-06-10T05:04:03;14.70;99.90
55648;DHT22;45266;48.756;9.246;2023-06-10T05:05:06;14.80;99.90
55648;DHT22;45266;48.756;9.246;2023-06-10T05:06:09;14.90;99.90
55648;DHT22;45266;48.756;9.246;2023-06-10T05:07:12;15.00;99.90
55648;DHT22;45266;48.756;9.246;2023-06-10T05:08:14;15.10;99.90
55648;DHT22;45266;48.756;9.246;2023-06-10T05:09:16;15.10;99.90
55648;DHT22;45266;48.756;9.246;2023-06-10T05:10:18;15.20;99.90
55648;DHT22;45266;48.756;9.246;2023-06-10T05:11:20;15.30;99.90
55648;DHT22;45266;48.756;9.246;2023-06-10T05:12:21;15.30;99.90
55648;DHT22;45266;48.756;9.246;2023-06-10T05:13:24;15.40;99.90
55648;DHT22;45266;48.756;9.246;2023-06-10T05:14:25;15.50;99.90
55648;DHT22;45266;48.756;9.246;2023-06-10T05:15:27;15.60;99.90
55648;DHT22;45266;48.756;9.246;2023-06-10T05:16:29;15.60;99.90
55648;DHT22;45266;48.756;9.246;2023-06-10T05:17:32;15.70;99.90
55648;DHT22;45266;48.756;9.246;2023-06-10T05:18:34;15.80;99.90
55648;DHT22;45266;48.756;9.246;2023-06-10T05:19:37;15.80;99.90
55648;DHT22;45266;48.756;9.246;2023-06-10T05:20:39;15.90;99.90
55648;DHT22;45266;48.756;9.246;2023-06-10T05:21:41;16.00;99.90
55648;DHT22;45266;48.756;9.246;2023-06-10T05:22:42;16.00;99.90
55648;DHT22;45266;48.756;9.246;2023-06-10T05:23:44;16.10;99.90
55648;DHT22;45266;48.756;9.246;2023-06-10T05:24:46;16.20;99.90
55648;DHT22;45266;48.756;9.246;2023-06-10T05:25:48;16.30;99.90
55648;DHT22;45266;48.756;9.246;2023-06-10T05:26:50;16.40;99.90
55648;DHT22;45266;48.756;9.246;2023-06-10T05:27:52;16.40;99.90
55648;DHT22;45266;48.756;9.246;2023-06-10T05:28:54;16.50;99.90
55648;DHT22;45266;48.756;9.246;2023-06-10T05:29:55;16.50;99.90
55648;DHT22;45266;48.756;9.246;2023-06-10T05:30:58;16.60;99.90
55648;DHT22;45266;48.756;9.246;2023-06-10T05:31:59;16.60;99.90
55648;DHT22;45266;48.756;9.246;2023-06-10T05:33:05;16.70;99.90
55648;DHT22;45266;48.756;9.246;2023-06-10T05:34:06;16.70;99.90
55648;DHT22;45266;48.756;9.246;2023-06-10T05:35:08;16.80;99.90
55648;DHT22;45266;48.756;9.246;2023-06-10T05:36:11;16.90;99.90
55648;DHT22;45266;48.756;9.246;2023-06-10T05:37:13;16.90;99.90
55648;DHT22;45266;48.756;9.246;2023-06-10T05:38:15;17.00;99.90
55648;DHT22;45266;48.756;9.246;2023-06-10T05:39:17;17.00;99.90
55648;DHT22;45266;48.756;9.246;2023-06-10T05:40:19;17.10;99.90
55648;DHT22;45266;48.756;9.246;2023-06-10T05:41:21;17.10;99.90
55648;DHT22;45266;48.756;9.246;2023-06-10T05:42:23;17.20;99.90
55648;DHT22;45266;48.756;9.246;2023-06-10T05:43:25;17.20;99.90
55648;DHT22;45266;48.756;9.246;2023-06-10T05:44:27;17.30;99.90
55648;DHT22;45266;48.756;9.246;2023-06-10T05:45:29;17.30;99.90
55648;DHT22;45266;48.756;9.246;2023-06-10T05:46:31;17.40;99.90
55648;DHT22;45266;48.756;9.246;2023-06-10T05:47:33;17.40;99.90
55648;DHT22;45266;48.756;9.246;2023-06-10T05:48:35;17.50;99.90
55648;DHT22;45266;48.756;9.246;2023-06-10T05:49:36;17.60;99.90
55648;DHT22;45266;48.756;9.246;2023-06-10T05:50:39;17.60;99.90
55648;DHT22;45266;48.756;9.246;2023-06-10T05:51:44;17.70;99.90
55648;DHT22;45266;48.756;9.246;2023-06-10T05:52:45;17.80;99.90
55648;DHT22;45266;48.756;9.246;2023-06-10T05:53:47;17.80;99.90
55648;DHT22;45266;48.756;9.246;2023-06-10T05:54:50;17.90;99.90
55648;DHT22;45266;48.756;9.246;2023-06-10T05:55:52;18.00;99.90
55648;DHT22;45266;48.756;9.246;2023-06-10T05:56:55;18.00;99.90
55648;DHT22;45266;48.756;9.246;2023-06-10T05:58:00;18.10;99.90
55648;DHT22;45266;48.756;9.246;2023-06-10T05:59:02;18.20;99.90
55648;DHT22;45266;48.756;9.246;2023-06-10T06:00:05;18.30;99.90
55648;DHT22;45266;48.756;9.246;2023-06-10T06:01:07;18.30;99.90
55648;DHT22;45266;48.756;9.246;2023-06-10T06:02:08;18.40;99.90
55648;DHT22;45266;48.756;9.246;2023-06-10T06:03:11;18.50;99.90
55648;DHT22;45266;48.756;9.246;2023-06-10T06:04:13;18.50;99.90
55648;DHT22;45266;48.756;9.246;2023-06-10T06:05:15;18.60;99.90
55648;DHT22;45266;48.756;9.246;2023-06-10T06:06:17;18.70;99.90
55648;DHT22;45266;48.756;9.246;2023-06-10T06:07:22;18.70;99.90
55648;DHT22;45266;48.756;9.246;2023-06-10T06:08:24;18.90;99.90
55648;DHT22;45266;48.756;9.246;2023-06-10T06:09:26;18.90;99.90
55648;DHT22;45266;48.756;9.246;2023-06-10T06:10:28;19.00;99.90
55648;DHT22;45266;48.756;9.246;2023-06-10T06:11:29;19.10;99.90
55648;DHT22;45266;48.756;9.246;2023-06-10T06:12:31;19.20;99.90
55648;DHT22;45266;48.756;9.246;2023-06-10T06:13:33;19.20;99.90
55648;DHT22;45266;48.756;9.246;2023-06-10T06:14:37;19.30;99.90
55648;DHT22;45266;48.756;9.246;2023-06-10T06:15:42;19.30;99.90
55648;DHT22;45266;48.756;9.246;2023-06-10T06:16:44;19.40;99.90
55648;DHT22;45266;48.756;9.246;2023-06-10T06:17:46;19.50;99.90
55648;DHT22;45266;48.756;9.246;2023-06-10T06:18:48;19.50;99.90
55648;DHT22;45266;48.756;9.246;2023-06-10T06:19:50;19.60;99.90
55648;DHT22;45266;48.756;9.246;2023-06-10T06:20:53;19.60;99.90
55648;DHT22;45266;48.756;9.246;2023-06-10T06:21:55;19.70;99.90
55648;DHT22;45266;48.756;9.246;2023-06-10T06:22:57;19.80;99.90
55648;DHT22;45266;48.756;9.246;2023-06-10T06:23:59;19.80;99.90
55648;DHT22;45266;48.756;9.246;2023-06-10T06:25:01;19.90;99.90
55648;DHT22;45266;48.756;9.246;2023-06-10T06:26:04;20.00;99.90
55648;DHT22;45266;48.756;9.246;2023-06-10T06:27:09;20.00;99.90
55648;DHT22;45266;48.756;9.246;2023-06-10T06:28:12;20.10;99.90
55648;DHT22;45266;48.756;9.246;2023-06-10T06:29:13;20.10;99.90
55648;DHT22;45266;48.756;9.246;2023-06-10T06:30:15;20.20;99.90
55648;DHT22;45266;48.756;9.246;2023-06-10T06:31:17;20.30;99.90
55648;DHT22;45266;48.756;9.246;2023-06-10T06:32:19;20.40;99.90
55648;DHT22;45266;48.756;9.246;2023-06-10T06:33:22;20.40;99.90
55648;DHT22;45266;48.756;9.246;2023-06-10T06:34:24;20.50;99.90
55648;DHT22;45266;48.756;9.246;2023-06-10T06:35:26;20.60;99.90
55648;DHT22;45266;48.756;9.246;2023-06-10T06:36:28;20.60;99.90
55648;DHT22;45266;48.756;9.246;2023-06-10T06:37:30;20.70;99.90
55648;DHT22;45266;48.756;9.246;2023-06-10T06:38:31;20.70;99.90
55648;DHT22;45266;48.756;9.246;2023-06-10T06:39:33;20.70;99.90
55648;DHT22;45266;48.756;9.246;2023-06-10T06:40:35;20.80;99.90